Time;durP1;ratioP1;P1;durP2;ratioP2;P2;SDS_P1;SDS_P2;PMS_P1;PMS_P2;Temp;Humidity;BMP_temperature;BMP_pressure;BME280_temperature;BME280_humidity;BME280_pressure;Samples;Min_cycle;Max_cycle;Signal;HPM_P1;HPM_P2
2021/12/26 00:01:24;;;;;;;5.73;1.97;;;;;;;;;;5074532;28;20454;-70
2021/12/26 00:03:50;;;;;;;5.23;1.57;;;;;;;;;;5074851;28;20495;-69
2021/12/26 00:06:18;;;;;;;2.20;1.40;;;;;;;;;;5074970;28;20425;-70
2021/12/26 00:08:46;;;;;;;3.20;1.97;;;;;;;;;;5076209;28;20498;-69
2021/12/26 00:11:12;;;;;;;3.10;1.80;;;;;;;;;;5074445;28;20429;-70
2021/12/26 00:13:38;;;;;;;2.80;1.73;;;;;;;;;;5074756;28;20974;-67
2021/12/26 00:16:05;;;;;;;2.60;1.80;;;;;;;;;;5074728;28;20403;-66
2021/12/26 00:18:31;;;;;;;3.03;1.70;;;;;;;;;;5074545;28;20422;-66
2021/12/26 00:20:57;;;;;;;2.70;1.70;;;;;;;;;;5074215;28;20509;-68
2021/12/26 00:23:23;;;;;;;10.73;1.93;;;;;;;;;;5074623;28;20500;-65
2021/12/26 00:25:49;;;;;;;3.27;1.30;;;;;;;;;;5074601;28;20810;-68
2021/12/26 00:28:16;;;;;;;5.77;1.57;;;;;;;;;;5074565;28;20898;-68
2021/12/26 00:30:42;;;;;;;3.60;1.67;;;;;;;;;;5074306;28;20910;-68
2021/12/26 00:33:08;;;;;;;4.83;1.70;;;;;;;;;;5074202;28;20483;-68
2021/12/26 00:35:34;;;;;;;4.20;2.13;;;;;;;;;;5074414;28;20422;-68
2021/12/26 00:38:00;;;;;;;2.30;1.27;;;;;;;;;;5073212;28;20407;-68
2021/12/26 00:40:26;;;;;;;2.73;1.50;;;;;;;;;;5073921;28;20403;-69
2021/12/26 00:42:53;;;;;;;3.27;1.90;;;;;;;;;;5073824;28;20489;-67
2021/12/26 00:45:19;;;;;;;3.83;1.30;;;;;;;;;;5073843;28;20407;-67
2021/12/26 00:47:46;;;;;;;2.23;1.40;;;;;;;;;;5073824;28;20810;-67
2021/12/26 00:50:14;;;;;;;2.23;1.23;;;;;;;;;;5073243;28;20790;-68
2021/12/26 00:52:40;;;;;;;1.80;1.40;;;;;;;;;;5073633;28;20430;-67
2021/12/26 00:55:08;;;;;;;1.53;0.83;;;;;;;;;;5073711;28;20399;-66
2021/12/26 00:57:34;;;;;;;1.80;1.40;;;;;;;;;;5073935;28;20421;-68
2021/12/26 01:00:00;;;;;;;3.83;1.37;;;;;;;;;;5073416;28;20801;-67
2021/12/26 01:02:26;;;;;;;7.67;1.33;;;;;;;;;;5073680;28;20458;-68
2021/12/26 01:04:52;;;;;;;6.10;1.80;;;;;;;;;;5073891;28;20871;-69
2021/12/26 01:07:37;;;;;;;6.10;1.50;;;;;;;;;;5073746;28;20489;-69
2021/12/26 01:10:05;;;;;;;1.70;1.20;;;;;;;;;;5073439;28;20411;-67
2021/12/26 01:12:32;;;;;;;9.87;1.30;;;;;;;;;;5073500;28;20441;-68
2021/12/26 01:15:03;;;;;;;6.50;2.20;;;;;;;;;;5073511;28;20407;-68
2021/12/26 01:17:30;;;;;;;2.67;1.70;;;;;;;;;;5073670;28;20449;-68
2021/12/26 01:19:56;;;;;;;5.27;1.50;;;;;;;;;;5073247;28;20483;-68
2021/12/26 01:22:23;;;;;;;14.37;1.50;;;;;;;;;;5073338;28;20462;-68
2021/12/26 01:24:55;;;;;;;3.30;1.60;;;;;;;;;;5073348;28;20811;-69
2021/12/26 01:27:22;;;;;;;1.70;1.20;;;;;;;;;;5073560;28;20840;-67
2021/12/26 01:29:48;;;;;;;1.57;1.23;;;;;;;;;;5073295;28;20418;-69
2021/12/26 01:32:14;;;;;;;5.00;1.73;;;;;;;;;;5072682;28;20423;-70
2021/12/26 01:34:40;;;;;;;1.40;1.10;;;;;;;;;;5073289;28;20402;-68
2021/12/26 01:37:06;;;;;;;5.90;1.53;;;;;;;;;;5072998;28;20422;-68
2021/12/26 01:39:32;;;;;;;2.47;1.20;;;;;;;;;;5073092;28;20450;-67
2021/12/26 01:42:02;;;;;;;3.30;1.40;;;;;;;;;;5073821;28;20482;-69
2021/12/26 01:44:29;;;;;;;5.57;1.40;;;;;;;;;;5072927;28;20911;-66
2021/12/26 01:46:55;;;;;;;3.23;1.20;;;;;;;;;;5072924;28;20745;-67
2021/12/26 01:49:22;;;;;;;2.03;1.23;;;;;;;;;;5072731;28;20484;-69
2021/12/26 01:51:50;;;;;;;2.13;1.20;;;;;;;;;;5073739;28;20398;-65
2021/12/26 01:54:27;;;;;;;3.30;1.50;;;;;;;;;;5072606;28;20430;-67
2021/12/26 01:56:53;;;;;;;4.80;1.80;;;;;;;;;;5072741;28;20429;-69
2021/12/26 01:59:19;;;;;;;3.90;1.40;;;;;;;;;;5072658;28;20407;-68
2021/12/26 02:01:45;;;;;;;2.63;1.50;;;;;;;;;;5072153;28;20989;-67
2021/12/26 02:04:12;;;;;;;4.93;1.27;;;;;;;;;;5072340;28;20423;-69
2021/12/26 02:06:38;;;;;;;2.27;1.13;;;;;;;;;;5072650;28;20476;-69
2021/12/26 02:09:04;;;;;;;1.60;1.10;;;;;;;;;;5072466;28;20442;-67
2021/12/26 02:11:30;;;;;;;1.20;0.70;;;;;;;;;;5072139;28;20415;-68
2021/12/26 02:13:56;;;;;;;8.50;1.90;;;;;;;;;;5072402;28;20481;-67
2021/12/26 02:16:23;;;;;;;2.47;1.47;;;;;;;;;;5072447;28;20460;-69
2021/12/26 02:18:49;;;;;;;2.93;1.10;;;;;;;;;;5072202;28;20434;-69
2021/12/26 02:24:09;;;;;;;2.70;1.20;;;;;;;;;;5073502;28;20419;-66
2021/12/26 02:29:15;;;;;;;3.43;1.30;;;;;;;;;;5073750;28;20490;-66
2021/12/26 02:31:42;;;;;;;1.87;1.30;;;;;;;;;;5071827;28;20430;-65
2021/12/26 02:34:08;;;;;;;2.53;1.30;;;;;;;;;;5072008;28;20423;-68
2021/12/26 02:36:34;;;;;;;1.67;1.03;;;;;;;;;;5072193;28;20763;-68
2021/12/26 02:39:00;;;;;;;2.07;1.00;;;;;;;;;;5072123;28;20398;-70
2021/12/26 02:41:26;;;;;;;6.63;1.10;;;;;;;;;;5071518;28;20458;-65
2021/12/26 02:43:52;;;;;;;1.30;1.10;;;;;;;;;;5071901;28;20422;-67
2021/12/26 02:46:18;;;;;;;1.53;1.07;;;;;;;;;;5072029;28;20557;-69
2021/12/26 02:48:44;;;;;;;3.23;0.90;;;;;;;;;;5072035;28;20418;-70
2021/12/26 02:51:10;;;;;;;1.77;1.30;;;;;;;;;;5071508;28;20407;-67
2021/12/26 02:53:36;;;;;;;1.90;1.27;;;;;;;;;;5071850;28;20502;-71
2021/12/26 02:56:03;;;;;;;1.50;0.90;;;;;;;;;;5071919;28;20410;-69
2021/12/26 02:58:29;;;;;;;1.40;1.10;;;;;;;;;;5071896;28;20403;-68
2021/12/26 03:00:57;;;;;;;12.70;1.50;;;;;;;;;;5072095;28;20476;-67
2021/12/26 03:03:23;;;;;;;8.80;1.20;;;;;;;;;;5075837;28;20507;-68
2021/12/26 03:05:57;;;;;;;8.97;1.27;;;;;;;;;;5076017;28;20899;-67
2021/12/26 03:08:23;;;;;;;2.70;1.37;;;;;;;;;;5075954;28;20407;-68
2021/12/26 03:10:52;;;;;;;2.27;1.30;;;;;;;;;;5075556;28;20414;-68
2021/12/26 03:13:18;;;;;;;2.47;1.07;;;;;;;;;;5075757;28;20461;-67
2021/12/26 03:15:44;;;;;;;1.80;1.00;;;;;;;;;;5075864;28;20407;-67
2021/12/26 03:18:10;;;;;;;2.93;1.37;;;;;;;;;;5075564;28;20484;-68
2021/12/26 03:20:42;;;;;;;1.87;0.90;;;;;;;;;;5075272;28;20446;-67
2021/12/26 03:23:09;;;;;;;2.97;1.33;;;;;;;;;;5075465;28;20930;-69
2021/12/26 03:25:36;;;;;;;3.30;1.20;;;;;;;;;;5075742;28;20410;-65
2021/12/26 03:28:04;;;;;;;1.83;0.90;;;;;;;;;;5075556;28;20407;-69
2021/12/26 03:30:30;;;;;;;1.50;0.97;;;;;;;;;;5075170;28;20411;-69
2021/12/26 03:32:57;;;;;;;5.37;1.20;;;;;;;;;;5075277;28;20985;-66
2021/12/26 03:35:25;;;;;;;6.43;1.63;;;;;;;;;;5075436;28;20413;-68
2021/12/26 03:37:51;;;;;;;5.67;1.73;;;;;;;;;;5075393;28;20407;-69
2021/12/26 03:40:17;;;;;;;2.97;1.40;;;;;;;;;;5074913;28;20410;-68
2021/12/26 03:42:43;;;;;;;2.03;1.23;;;;;;;;;;5075142;28;20966;-68
2021/12/26 03:45:10;;;;;;;2.10;1.23;;;;;;;;;;5075209;28;20406;-69
2021/12/26 03:47:37;;;;;;;4.33;1.13;;;;;;;;;;5075148;28;20452;-67
2021/12/26 03:50:05;;;;;;;1.37;1.00;;;;;;;;;;5074713;28;20442;-70
2021/12/26 03:52:31;;;;;;;3.63;1.27;;;;;;;;;;5074864;28;21066;-67
2021/12/26 03:54:57;;;;;;;3.80;1.33;;;;;;;;;;5075116;28;20414;-68
2021/12/26 03:57:23;;;;;;;2.00;1.10;;;;;;;;;;5075049;28;20406;-68
2021/12/26 03:59:49;;;;;;;1.50;1.10;;;;;;;;;;5074945;28;20403;-66
2021/12/26 04:02:15;;;;;;;5.90;1.10;;;;;;;;;;5074352;28;20469;-66
2021/12/26 04:04:42;;;;;;;6.90;1.90;;;;;;;;;;5074978;28;20403;-69
2021/12/26 04:07:08;;;;;;;7.63;1.70;;;;;;;;;;5074733;28;20415;-69
2021/12/26 04:09:34;;;;;;;6.13;1.00;;;;;;;;;;5074677;28;20407;-69
2021/12/26 04:12:00;;;;;;;1.80;1.10;;;;;;;;;;5074369;28;20407;-68
2021/12/26 04:14:26;;;;;;;1.60;0.90;;;;;;;;;;5074664;28;20441;-65
2021/12/26 04:16:53;;;;;;;4.03;1.13;;;;;;;;;;5074655;28;20494;-67
2021/12/26 04:19:19;;;;;;;1.33;1.00;;;;;;;;;;5074588;28;20442;-70
2021/12/26 04:21:45;;;;;;;1.40;0.87;;;;;;;;;;5074194;28;20538;-69
2021/12/26 04:24:11;;;;;;;6.60;1.57;;;;;;;;;;5074356;28;20514;-69
2021/12/26 04:26:39;;;;;;;2.60;1.20;;;;;;;;;;5074569;28;20490;-69
2021/12/26 04:29:05;;;;;;;2.23;0.87;;;;;;;;;;5074396;28;20506;-68
2021/12/26 04:31:31;;;;;;;2.50;1.33;;;;;;;;;;5074099;28;20438;-70
2021/12/26 04:33:57;;;;;;;5.20;1.10;;;;;;;;;;5073931;28;20466;-69
2021/12/26 04:36:23;;;;;;;1.93;1.60;;;;;;;;;;5074072;28;20411;-66
2021/12/26 04:38:49;;;;;;;4.53;1.70;;;;;;;;;;5074267;28;20480;-66
2021/12/26 04:41:15;;;;;;;4.20;0.90;;;;;;;;;;5073750;28;20421;-68
2021/12/26 04:43:41;;;;;;;12.90;1.20;;;;;;;;;;5074143;28;20861;-67
2021/12/26 04:46:08;;;;;;;1.60;0.97;;;;;;;;;;5074194;28;20437;-67
2021/12/26 04:48:35;;;;;;;2.53;1.20;;;;;;;;;;5074149;28;20789;-67
2021/12/26 04:51:02;;;;;;;1.83;1.33;;;;;;;;;;5073732;28;20879;-69
2021/12/26 04:53:28;;;;;;;10.80;1.43;;;;;;;;;;5074005;28;20430;-69
2021/12/26 04:55:54;;;;;;;5.50;2.17;;;;;;;;;;5074009;28;20440;-65
2021/12/26 04:58:20;;;;;;;10.80;1.10;;;;;;;;;;5074013;28;20407;-66
2021/12/26 05:00:46;;;;;;;1.30;0.90;;;;;;;;;;5073553;28;20407;-68
2021/12/26 05:03:12;;;;;;;2.30;1.13;;;;;;;;;;5073644;28;20462;-67
2021/12/26 05:05:38;;;;;;;5.73;1.20;;;;;;;;;;5073832;28;20410;-68
2021/12/26 05:08:04;;;;;;;2.27;1.07;;;;;;;;;;5073771;28;20411;-67
2021/12/26 05:10:30;;;;;;;1.50;0.93;;;;;;;;;;5073283;28;20771;-68
2021/12/26 05:12:57;;;;;;;3.20;1.00;;;;;;;;;;5073549;28;20459;-69
2021/12/26 05:15:23;;;;;;;12.97;1.80;;;;;;;;;;5073666;28;20467;-67
2021/12/26 05:17:50;;;;;;;10.67;1.37;;;;;;;;;;5073459;28;20415;-67
2021/12/26 05:20:18;;;;;;;3.07;1.80;;;;;;;;;;5073193;28;20487;-68
2021/12/26 05:22:45;;;;;;;1.10;0.80;;;;;;;;;;5073385;28;20523;-69
2021/12/26 05:25:12;;;;;;;1.60;1.20;;;;;;;;;;5072878;28;20419;-65
2021/12/26 05:27:38;;;;;;;10.83;1.10;;;;;;;;;;5073367;28;20407;-66
2021/12/26 05:30:05;;;;;;;1.57;1.20;;;;;;;;;;5072947;28;20399;-70
2021/12/26 05:32:31;;;;;;;4.47;1.80;;;;;;;;;;5073144;28;20767;-69
2021/12/26 05:34:57;;;;;;;2.07;1.63;;;;;;;;;;5073127;28;20494;-66
2021/12/26 05:37:23;;;;;;;2.03;1.27;;;;;;;;;;5074598;28;20438;-68
2021/12/26 05:39:49;;;;;;;2.17;1.30;;;;;;;;;;5074223;28;20442;-67
2021/12/26 05:42:16;;;;;;;3.90;1.27;;;;;;;;;;5072414;28;20451;-66
2021/12/26 05:44:45;;;;;;;4.83;1.30;;;;;;;;;;5073185;28;20489;-66
2021/12/26 05:47:12;;;;;;;12.43;1.83;;;;;;;;;;5072814;28;20837;-68
2021/12/26 05:49:38;;;;;;;3.80;1.27;;;;;;;;;;5074225;28;20391;-67
2021/12/26 05:52:04;;;;;;;2.27;1.37;;;;;;;;;;5072327;28;20776;-66
2021/12/26 05:54:31;;;;;;;2.77;1.50;;;;;;;;;;5072658;28;20480;-69
2021/12/26 05:56:57;;;;;;;4.53;1.77;;;;;;;;;;5072679;28;20446;-69
2021/12/26 05:59:23;;;;;;;4.10;1.73;;;;;;;;;;5072598;28;20887;-69
2021/12/26 06:01:49;;;;;;;5.03;1.80;;;;;;;;;;5072108;28;20458;-69
2021/12/26 06:04:15;;;;;;;2.17;1.40;;;;;;;;;;5072500;28;20966;-68
2021/12/26 06:06:43;;;;;;;1.77;1.40;;;;;;;;;;5072396;28;20482;-68
2021/12/26 06:09:10;;;;;;;3.47;1.37;;;;;;;;;;5072514;28;20903;-69
2021/12/26 06:11:36;;;;;;;3.60;1.50;;;;;;;;;;5071988;28;20451;-67
2021/12/26 06:14:02;;;;;;;2.43;1.60;;;;;;;;;;5072121;28;20461;-68
2021/12/26 06:16:28;;;;;;;5.60;1.43;;;;;;;;;;5072487;28;20418;-70
2021/12/26 06:18:54;;;;;;;1.83;1.40;;;;;;;;;;5072100;28;20434;-70
2021/12/26 06:21:20;;;;;;;6.67;1.70;;;;;;;;;;5073244;28;20871;-68
2021/12/26 06:23:50;;;;;;;2.23;1.43;;;;;;;;;;5072104;28;20992;-68
2021/12/26 06:26:16;;;;;;;1.97;1.40;;;;;;;;;;5072373;28;20423;-69
2021/12/26 06:28:42;;;;;;;3.37;1.30;;;;;;;;;;5072126;28;20755;-68
2021/12/26 06:31:08;;;;;;;3.03;1.80;;;;;;;;;;5071745;28;20407;-67
2021/12/26 06:33:34;;;;;;;1.83;1.30;;;;;;;;;;5071987;28;20804;-69
2021/12/26 06:36:01;;;;;;;1.80;1.20;;;;;;;;;;5071254;28;20553;-68
2021/12/26 06:38:27;;;;;;;2.10;1.40;;;;;;;;;;5072205;28;20505;-69
2021/12/26 06:40:53;;;;;;;2.10;1.50;;;;;;;;;;5071640;28;20415;-64
2021/12/26 06:43:19;;;;;;;2.47;1.53;;;;;;;;;;5071900;28;20463;-65
2021/12/26 06:45:45;;;;;;;1.50;1.03;;;;;;;;;;5072001;28;20403;-63
2021/12/26 06:48:11;;;;;;;3.90;1.83;;;;;;;;;;5071951;28;20402;-66
2021/12/26 06:50:38;;;;;;;2.20;1.60;;;;;;;;;;5071592;28;20501;-67
2021/12/26 06:53:04;;;;;;;4.73;1.80;;;;;;;;;;5071928;28;20430;-66
2021/12/26 06:55:30;;;;;;;8.63;1.40;;;;;;;;;;5071854;28;20438;-65
2021/12/26 06:57:57;;;;;;;2.47;1.30;;;;;;;;;;5071979;28;20411;-67
2021/12/26 07:00:23;;;;;;;10.83;1.77;;;;;;;;;;5071572;28;20411;-65
2021/12/26 07:02:49;;;;;;;3.30;1.60;;;;;;;;;;5072921;28;20606;-66
2021/12/26 07:05:15;;;;;;;3.30;2.10;;;;;;;;;;5071774;28;20410;-66
2021/12/26 07:07:42;;;;;;;3.13;1.97;;;;;;;;;;5071810;28;20795;-66
2021/12/26 07:10:09;;;;;;;4.30;1.47;;;;;;;;;;5071327;28;20895;-67
2021/12/26 07:12:35;;;;;;;2.60;1.47;;;;;;;;;;5071553;28;20892;-67
2021/12/26 07:15:01;;;;;;;2.17;1.53;;;;;;;;;;5073126;28;20398;-66
2021/12/26 07:17:27;;;;;;;2.93;1.40;;;;;;;;;;5071906;28;20899;-67
2021/12/26 07:19:53;;;;;;;4.00;1.70;;;;;;;;;;5071592;28;20748;-65
2021/12/26 07:22:19;;;;;;;2.37;1.50;;;;;;;;;;5071249;28;20450;-67
2021/12/26 07:24:46;;;;;;;4.23;1.40;;;;;;;;;;5071780;28;20406;-66
2021/12/26 07:27:13;;;;;;;6.97;1.37;;;;;;;;;;5071668;28;21015;-64
2021/12/26 07:29:39;;;;;;;2.13;1.50;;;;;;;;;;5071711;28;20493;-65
2021/12/26 07:32:06;;;;;;;4.30;1.60;;;;;;;;;;5071212;28;20423;-66
2021/12/26 07:34:33;;;;;;;2.50;1.47;;;;;;;;;;5071529;28;20927;-65
2021/12/26 07:36:59;;;;;;;1.57;1.10;;;;;;;;;;5071565;28;20822;-66
2021/12/26 07:39:25;;;;;;;1.80;1.40;;;;;;;;;;5071605;28;20414;-66
2021/12/26 07:41:51;;;;;;;4.03;1.20;;;;;;;;;;5071032;28;20974;-66
2021/12/26 07:44:17;;;;;;;1.80;1.27;;;;;;;;;;5071396;28;20427;-64
2021/12/26 07:46:43;;;;;;;2.17;1.40;;;;;;;;;;5071768;28;20405;-64
2021/12/26 07:49:09;;;;;;;1.50;1.20;;;;;;;;;;5075166;28;20767;-67
2021/12/26 07:51:35;;;;;;;1.97;1.23;;;;;;;;;;5074689;28;20428;-67
2021/12/26 07:54:01;;;;;;;4.30;1.70;;;;;;;;;;5074864;28;20487;-64
2021/12/26 07:56:28;;;;;;;1.30;1.00;;;;;;;;;;5075168;28;20418;-66
2021/12/26 07:58:54;;;;;;;3.37;1.73;;;;;;;;;;5074867;28;20426;-65
2021/12/26 08:01:20;;;;;;;3.80;1.23;;;;;;;;;;5074465;28;20410;-66
2021/12/26 08:03:47;;;;;;;8.90;1.17;;;;;;;;;;5074728;28;20822;-66
2021/12/26 08:06:18;;;;;;;3.20;1.30;;;;;;;;;;5076082;28;20387;-66
2021/12/26 08:08:44;;;;;;;8.43;1.30;;;;;;;;;;5075024;28;20501;-65
2021/12/26 08:11:10;;;;;;;5.23;1.27;;;;;;;;;;5074436;28;20391;-66
2021/12/26 08:13:36;;;;;;;1.50;0.87;;;;;;;;;;5074683;28;20429;-64
2021/12/26 08:16:02;;;;;;;14.93;1.20;;;;;;;;;;5074747;28;20415;-66
2021/12/26 08:18:28;;;;;;;1.80;1.13;;;;;;;;;;5074648;28;20464;-65
2021/12/26 08:20:54;;;;;;;5.03;1.40;;;;;;;;;;5074346;28;20410;-65
2021/12/26 08:23:20;;;;;;;3.27;1.70;;;;;;;;;;5074476;28;20978;-65
2021/12/26 08:25:46;;;;;;;7.70;1.37;;;;;;;;;;5074561;28;20821;-66
2021/12/26 08:28:16;;;;;;;21.33;1.87;;;;;;;;;;5073716;28;20411;-65
2021/12/26 08:30:42;;;;;;;10.43;1.60;;;;;;;;;;5074054;28;20407;-64
2021/12/26 08:33:08;;;;;;;2.10;1.13;;;;;;;;;;5073996;28;20469;-65
2021/12/26 08:35:35;;;;;;;4.47;1.50;;;;;;;;;;5075565;28;20887;-66
2021/12/26 08:38:01;;;;;;;2.30;1.20;;;;;;;;;;5074139;28;20415;-66
2021/12/26 08:40:27;;;;;;;7.67;1.00;;;;;;;;;;5073921;28;20411;-66
2021/12/26 08:42:53;;;;;;;1.77;1.20;;;;;;;;;;5073965;28;20457;-63
2021/12/26 08:45:19;;;;;;;1.60;1.07;;;;;;;;;;5075476;28;20759;-66
2021/12/26 08:47:47;;;;;;;2.47;0.90;;;;;;;;;;5074165;28;20957;-65
2021/12/26 08:50:13;;;;;;;2.37;1.00;;;;;;;;;;5073651;28;20415;-67
2021/12/26 08:52:39;;;;;;;10.60;2.07;;;;;;;;;;5073923;28;20434;-67
2021/12/26 08:55:06;;;;;;;7.63;1.23;;;;;;;;;;5073934;28;20483;-65
2021/12/26 08:57:32;;;;;;;6.00;2.50;;;;;;;;;;5074046;28;20394;-65
2021/12/26 08:59:59;;;;;;;9.60;2.23;;;;;;;;;;5072561;28;20415;-67
2021/12/26 09:02:25;;;;;;;4.70;0.97;;;;;;;;;;5073770;28;20970;-66
2021/12/26 09:04:51;;;;;;;4.37;1.20;;;;;;;;;;5073936;28;20438;-68
2021/12/26 09:07:17;;;;;;;6.70;1.60;;;;;;;;;;5073835;28;20451;-64
2021/12/26 09:09:46;;;;;;;5.67;1.33;;;;;;;;;;5073835;28;20472;-63
2021/12/26 09:12:12;;;;;;;3.07;1.03;;;;;;;;;;5073312;28;20423;-65
2021/12/26 09:14:38;;;;;;;4.93;1.23;;;;;;;;;;5073796;28;20442;-66
2021/12/26 09:17:04;;;;;;;5.67;1.37;;;;;;;;;;5073577;28;20422;-64
2021/12/26 09:19:32;;;;;;;7.80;0.97;;;;;;;;;;5073570;28;20438;-66
2021/12/26 09:21:59;;;;;;;8.80;1.90;;;;;;;;;;5072914;28;20512;-66
2021/12/26 09:24:25;;;;;;;7.27;1.33;;;;;;;;;;5073391;28;20477;-65
2021/12/26 09:26:51;;;;;;;2.30;1.00;;;;;;;;;;5073288;28;20407;-65
2021/12/26 09:29:17;;;;;;;1.10;0.80;;;;;;;;;;5073305;28;20489;-67
2021/12/26 09:31:44;;;;;;;2.00;1.10;;;;;;;;;;5073075;28;20422;-65
2021/12/26 09:34:10;;;;;;;9.70;1.07;;;;;;;;;;5073014;28;20457;-66
2021/12/26 09:36:36;;;;;;;9.37;1.13;;;;;;;;;;5073271;28;20399;-64
2021/12/26 09:39:03;;;;;;;12.80;1.83;;;;;;;;;;5073018;28;20430;-66
2021/12/26 09:41:29;;;;;;;5.37;1.30;;;;;;;;;;5072581;28;20414;-66
2021/12/26 09:43:55;;;;;;;1.10;0.80;;;;;;;;;;5072826;28;20783;-66
2021/12/26 09:46:21;;;;;;;2.10;1.20;;;;;;;;;;5072964;28;20640;-66
2021/12/26 09:48:47;;;;;;;1.50;0.80;;;;;;;;;;5072944;28;20415;-66
2021/12/26 09:51:13;;;;;;;2.10;1.27;;;;;;;;;;5072437;28;20417;-66
2021/12/26 09:53:40;;;;;;;2.07;1.10;;;;;;;;;;5072473;28;20434;-67
2021/12/26 09:56:07;;;;;;;8.00;1.30;;;;;;;;;;5072419;28;20426;-65
2021/12/26 09:58:34;;;;;;;3.93;1.20;;;;;;;;;;5072489;28;20411;-64
2021/12/26 10:01:00;;;;;;;3.33;0.90;;;;;;;;;;5072041;28;20463;-64
2021/12/26 10:03:36;;;;;;;1.30;1.00;;;;;;;;;;5072193;28;20459;-64
2021/12/26 10:06:10;;;;;;;1.60;1.00;;;;;;;;;;5072636;28;20410;-64
2021/12/26 10:08:50;;;;;;;2.03;0.97;;;;;;;;;;5072742;28;20410;-63
2021/12/26 10:11:16;;;;;;;5.03;0.83;;;;;;;;;;5072056;28;20438;-63
2021/12/26 10:13:42;;;;;;;5.73;1.10;;;;;;;;;;5072425;28;20496;-67
2021/12/26 10:16:09;;;;;;;1.43;1.20;;;;;;;;;;5072405;28;20433;-67
2021/12/26 10:18:39;;;;;;;4.60;0.90;;;;;;;;;;5073607;28;20433;-67
2021/12/26 10:21:23;;;;;;;1.37;0.80;;;;;;;;;;5072011;28;20414;-67
2021/12/26 10:23:50;;;;;;;1.07;0.73;;;;;;;;;;5072207;28;21022;-64
2021/12/26 10:26:20;;;;;;;2.00;1.30;;;;;;;;;;5072389;28;20765;-66
2021/12/26 10:29:03;;;;;;;1.73;0.90;;;;;;;;;;5072460;28;20406;-65
2021/12/26 10:31:29;;;;;;;4.03;1.20;;;;;;;;;;5072111;28;20403;-64
2021/12/26 10:33:55;;;;;;;1.67;0.87;;;;;;;;;;5071620;28;20423;-67
2021/12/26 10:36:21;;;;;;;5.70;0.80;;;;;;;;;;5072291;28;20630;-66
2021/12/26 10:39:14;;;;;;;6.47;1.10;;;;;;;;;;5072084;28;20519;-66
2021/12/26 10:41:42;;;;;;;6.60;1.10;;;;;;;;;;5068749;28;20777;-67
2021/12/26 10:44:18;;;;;;;1.43;0.80;;;;;;;;;;5072054;28;20435;-65
2021/12/26 10:46:47;;;;;;;6.23;0.90;;;;;;;;;;5072298;28;20430;-65
2021/12/26 10:49:27;;;;;;;1.60;1.00;;;;;;;;;;5072088;28;20425;-64
2021/12/26 10:51:54;;;;;;;2.33;1.57;;;;;;;;;;5071698;28;20410;-66
2021/12/26 10:54:25;;;;;;;12.60;1.90;;;;;;;;;;5071795;28;20426;-67
2021/12/26 10:57:10;;;;;;;1.50;1.10;;;;;;;;;;5072068;28;20403;-67
2021/12/26 10:59:36;;;;;;;7.03;1.90;;;;;;;;;;5072057;28;20481;-64
2021/12/26 11:02:02;;;;;;;6.43;1.30;;;;;;;;;;5071372;28;20450;-67
2021/12/26 11:04:28;;;;;;;11.53;2.20;;;;;;;;;;5071916;28;20444;-68
2021/12/26 11:06:58;;;;;;;4.87;2.17;;;;;;;;;;5072948;28;20399;-67
2021/12/26 11:09:24;;;;;;;8.80;3.10;;;;;;;;;;5070735;28;20493;-66
2021/12/26 11:12:06;;;;;;;10.17;3.07;;;;;;;;;;5071496;28;20911;-65
2021/12/26 11:14:32;;;;;;;13.07;3.60;;;;;;;;;;5071289;28;20435;-65
2021/12/26 11:16:58;;;;;;;11.40;4.47;;;;;;;;;;5070905;28;20422;-65
2021/12/26 11:19:41;;;;;;;17.17;7.70;;;;;;;;;;5071604;28;20831;-64
2021/12/26 11:22:07;;;;;;;14.70;6.10;;;;;;;;;;5071997;28;20446;-65
2021/12/26 11:24:33;;;;;;;13.47;6.30;;;;;;;;;;5075011;28;20462;-66
2021/12/26 11:26:59;;;;;;;18.37;7.73;;;;;;;;;;5075483;28;20441;-66
2021/12/26 11:29:25;;;;;;;18.50;7.67;;;;;;;;;;5055651;28;20411;-67
2021/12/26 11:31:54;;;;;;;15.67;6.57;;;;;;;;;;5067544;28;20471;-67
2021/12/26 11:34:20;;;;;;;21.57;7.17;;;;;;;;;;5075362;28;20512;-67
2021/12/26 11:36:49;;;;;;;24.67;8.83;;;;;;;;;;5075595;28;20493;-66
2021/12/26 11:39:15;;;;;;;21.70;8.57;;;;;;;;;;5073838;28;20450;-66
2021/12/26 11:41:42;;;;;;;32.77;10.90;;;;;;;;;;5073321;28;20483;-69
2021/12/26 11:44:08;;;;;;;25.80;9.60;;;;;;;;;;5074190;28;20480;-66
2021/12/26 11:46:39;;;;;;;18.37;6.63;;;;;;;;;;5077110;28;20423;-67
2021/12/26 11:49:14;;;;;;;13.67;6.80;;;;;;;;;;5075459;28;20406;-65
2021/12/26 11:51:58;;;;;;;22.23;7.50;;;;;;;;;;5075011;28;20512;-66
2021/12/26 11:54:25;;;;;;;21.40;7.87;;;;;;;;;;5082201;28;20435;-66
2021/12/26 11:56:57;;;;;;;27.47;8.53;;;;;;;;;;5075071;28;20483;-65
2021/12/26 11:59:47;;;;;;;26.13;9.50;;;;;;;;;;5075543;28;20533;-65
2021/12/26 12:02:13;;;;;;;18.93;8.50;;;;;;;;;;5073626;28;20451;-65
2021/12/26 12:04:39;;;;;;;28.23;10.33;;;;;;;;;;5075029;28;20407;-64
2021/12/26 12:07:06;;;;;;;26.97;10.70;;;;;;;;;;5076857;28;20437;-65
2021/12/26 12:09:36;;;;;;;24.47;8.07;;;;;;;;;;5074077;28;20427;-67
2021/12/26 12:12:02;;;;;;;16.87;7.37;;;;;;;;;;5087224;28;20414;-66
2021/12/26 12:14:44;;;;;;;21.63;6.90;;;;;;;;;;5074025;28;20435;-65
2021/12/26 12:17:15;;;;;;;20.47;7.17;;;;;;;;;;5074073;28;20502;-65
2021/12/26 12:19:59;;;;;;;18.63;7.57;;;;;;;;;;5081320;28;20425;-66
2021/12/26 12:22:25;;;;;;;25.03;7.17;;;;;;;;;;5088469;28;20495;-67
2021/12/26 12:24:52;;;;;;;15.83;5.70;;;;;;;;;;5074024;28;20426;-65
2021/12/26 12:27:20;;;;;;;13.37;5.87;;;;;;;;;;5073221;28;20442;-66
2021/12/26 12:29:52;;;;;;;15.17;5.27;;;;;;;;;;5054659;28;20752;-66
2021/12/26 12:32:23;;;;;;;7.07;3.53;;;;;;;;;;5054021;28;20416;-64
2021/12/26 12:34:52;;;;;;;19.43;6.60;;;;;;;;;;5073558;28;20748;-65
2021/12/26 12:37:37;;;;;;;18.63;7.07;;;;;;;;;;5082141;28;20423;-65
2021/12/26 12:40:09;;;;;;;15.90;5.90;;;;;;;;;;5073929;28;20468;-65
2021/12/26 12:42:35;;;;;;;25.57;8.83;;;;;;;;;;5060635;28;20470;-64
2021/12/26 12:45:01;;;;;;;15.80;6.97;;;;;;;;;;5067445;28;20419;-64
2021/12/26 12:47:27;;;;;;;15.47;7.47;;;;;;;;;;5087118;28;20418;-69
2021/12/26 12:50:02;;;;;;;14.90;7.73;;;;;;;;;;5075037;28;20419;-64
2021/12/26 12:52:41;;;;;;;15.07;6.00;;;;;;;;;;5071711;28;20434;-66
2021/12/26 12:55:13;;;;;;;17.10;7.47;;;;;;;;;;5071924;28;20472;-65
2021/12/26 12:57:42;;;;;;;11.73;6.10;;;;;;;;;;5081423;28;20934;-68
2021/12/26 13:00:29;;;;;;;17.70;6.90;;;;;;;;;;5071392;28;20457;-65
2021/12/26 13:03:00;;;;;;;10.57;5.47;;;;;;;;;;5062340;28;20462;-65
2021/12/26 13:05:27;;;;;;;16.90;7.80;;;;;;;;;;5073155;28;20422;-68
2021/12/26 13:08:19;;;;;;;11.57;5.60;;;;;;;;;;5093222;28;20422;-65
2021/12/26 13:10:49;;;;;;;17.13;5.77;;;;;;;;;;5077824;28;20499;-67
2021/12/26 13:13:21;;;;;;;14.90;6.20;;;;;;;;;;5079242;28;20522;-66
2021/12/26 13:15:59;;;;;;;9.50;4.10;;;;;;;;;;5074006;28;20435;-65
2021/12/26 13:18:28;;;;;;;14.87;5.93;;;;;;;;;;5069931;28;20426;-65
2021/12/26 13:20:56;;;;;;;12.07;4.27;;;;;;;;;;5074511;28;20429;-63
2021/12/26 13:23:23;;;;;;;14.10;5.30;;;;;;;;;;5080703;28;21001;-65
2021/12/26 13:25:51;;;;;;;11.43;4.10;;;;;;;;;;5090480;28;20450;-63
2021/12/26 13:28:18;;;;;;;10.43;4.60;;;;;;;;;;5075400;28;20430;-64
2021/12/26 13:30:46;;;;;;;11.00;3.60;;;;;;;;;;5082382;28;20414;-65
2021/12/26 13:33:15;;;;;;;12.07;5.60;;;;;;;;;;5091846;28;20449;-63
2021/12/26 13:35:41;;;;;;;15.53;6.37;;;;;;;;;;5089941;28;20795;-63
2021/12/26 13:38:07;;;;;;;14.67;6.10;;;;;;;;;;5076963;28;20418;-64
2021/12/26 13:40:36;;;;;;;12.07;5.77;;;;;;;;;;5072620;28;20503;-64
2021/12/26 13:43:02;;;;;;;13.10;6.20;;;;;;;;;;5074093;28;20458;-63
2021/12/26 13:45:29;;;;;;;12.07;5.17;;;;;;;;;;5072337;28;20418;-64
2021/12/26 13:47:55;;;;;;;14.37;5.57;;;;;;;;;;5072034;28;20446;-64
2021/12/26 13:50:21;;;;;;;12.43;5.97;;;;;;;;;;5071716;28;20465;-66
2021/12/26 13:52:58;;;;;;;8.33;4.40;;;;;;;;;;5071398;28;20958;-65
2021/12/26 13:55:24;;;;;;;16.90;5.60;;;;;;;;;;5072357;28;20430;-63
2021/12/26 13:57:58;;;;;;;10.07;4.57;;;;;;;;;;5072217;28;20430;-65
2021/12/26 14:00:24;;;;;;;9.10;3.90;;;;;;;;;;5072043;28;20476;-65
2021/12/26 14:02:51;;;;;;;10.97;5.03;;;;;;;;;;5084172;28;20541;-64
2021/12/26 14:05:18;;;;;;;11.97;4.77;;;;;;;;;;5084166;28;20419;-66
2021/12/26 14:07:49;;;;;;;15.63;6.80;;;;;;;;;;5072005;28;20919;-64
2021/12/26 14:10:17;;;;;;;13.20;5.37;;;;;;;;;;5072175;28;20422;-63
2021/12/26 14:12:49;;;;;;;11.00;5.20;;;;;;;;;;5071114;28;20442;-63
2021/12/26 14:15:31;;;;;;;10.83;5.57;;;;;;;;;;5068032;28;20435;-65
2021/12/26 14:18:11;;;;;;;13.50;6.00;;;;;;;;;;5075956;28;20966;-64
2021/12/26 14:20:47;;;;;;;11.77;5.47;;;;;;;;;;5072990;28;20390;-63
2021/12/26 14:23:21;;;;;;;19.50;7.00;;;;;;;;;;5075907;28;20453;-63
2021/12/26 14:25:49;;;;;;;11.90;5.97;;;;;;;;;;5090567;28;21136;-66
2021/12/26 14:28:18;;;;;;;12.80;6.03;;;;;;;;;;5086440;28;20418;-64
2021/12/26 14:30:47;;;;;;;15.27;6.63;;;;;;;;;;5071295;28;20417;-64
2021/12/26 14:33:15;;;;;;;31.80;11.70;;;;;;;;;;5071259;28;20803;-66
2021/12/26 14:35:42;;;;;;;34.30;11.17;;;;;;;;;;5072480;28;20419;-63
2021/12/26 14:38:15;;;;;;;38.27;12.30;;;;;;;;;;5070932;28;20414;-64
2021/12/26 14:40:52;;;;;;;39.33;12.90;;;;;;;;;;5071291;28;20917;-64
2021/12/26 14:43:18;;;;;;;30.53;11.77;;;;;;;;;;5081063;28;20525;-65
2021/12/26 14:46:05;;;;;;;27.50;11.60;;;;;;;;;;5071121;28;20414;-64
2021/12/26 14:48:36;;;;;;;27.70;9.80;;;;;;;;;;5071659;28;20506;-63